Al Hoceima, Morocco
Current Conditions -  °F | °C
As of 9:00 AM on Saturday 22 Nov 2014 (Local Time) from GMTA Reporting Station
Moderate Fog Moderate Fog  
Wind Chill: 17°   Ceiling: 1000
Heat Index: 17°   Visibility: 2.5mi
Dew Point: 16°   Wind: 2mph
Humidity: 94%   Direction: NA
Pressure: 29.83"   Gusts: NA
Location:  35.26°N, 3.94°W
Report Text: GMTA 220800Z VRB02KT 4000 FG OVC010 17/16 Q1010 NOSIG
Loading
Personal Weather Stations






























Interactive Weather Map New forecast layout! Learn more

10-Day Weather Forecast

Advertisements
Track Severe Weather on mobile